Aérodrome :
LOGIN :

S'inscrire | Disclaimer

   EN    FR    IT 

 










Légende :    VFR   VFR Marginal   IFR   IFR Intensif   IFR Très Intensif
Visi : 
Plafond : 
>= 8 km
>= 3000ft
5 à 8 km
1000 à 3000 ft
1500m à 5 km
500 à 1000 ft
800 à 1500m
200 à 500 ft
< 800m
< 200 ft
Symboles :   Orages  Brouillard  Fortes neiges  Fortes précipitations  Vent > 20 kt
SIGMETs :   Divers  Orages  Givrage  Turbulence  Onde Orograph.  Cendres Volcan.







- Altitude de l'aérodrome : 313 ft
- Code IATA : LEH
- Voir les cartes d'approche


LFOH - Le Havre Octeville

DERNIER METAR :
  • 220930Z AUTO 30010KT 9999 FEW028/// BKN034/// BKN056/// ///TCU 06/02 Q1005 TEMPO 4000 SHRA BKN008 BKN020TCU

METARs EXPIRÉS :
  • 220900Z AUTO 28008KT 9999 BKN031/// BKN054/// ///TCU 06/02 Q1005 TEMPO 4000 SHRA BKN008 BKN020TCU BECMG 34012KT
  • 220830Z AUTO 31008KT 9999 SCT031/// SCT050/// BKN060/// ///TCU 06/01 Q1006 TEMPO 4000 SHRA BKN008 BKN020TCU
  • 220800Z AUTO 24008KT 9999 FEW007/// SCT012/// BKN031/// ///TCU 05/02 Q1006 TEMPO 4000 SHRA OVC004 BECMG 34012KT
  • 220730Z AUTO 21008KT 9999 BKN007/// BKN028/// BKN034/// ///TCU 04/03 Q1006 TEMPO 4000 SHRA OVC004 BECMG 34012KT
  • 220700Z AUTO 21008KT 9000 BKN008 BKN034 BKN046 04/03 Q1006 TEMPO 19015G25KT 2000 OVC004

TAF TAF LFOH
Valide du 22 à 06h jusqu'au 23 à 06h UTC


220500Z 2206/2306 19015KT 6000 RA BKN008 OVC020
TEMPO 2206/2209 19015G25KT 2000 OVC004
FM220900 34012KT 9999 BKN020
TEMPO 2209/2224 4000 SHRA BKN008 BKN020TCU
ATIS : +33 2 35 54 64 93
Pas de NOTAMs connus pour ce terrain.



MET'MAP, la Météo Aéronautique d'un coup d'oeil ! - Copyright ORBIFLY Décembre 2007 - Disclaimer

ORBIFLY MET'MAP TEAM :

Programmation & Développement : Alexandra Zaïnal
Conception & Développement : Baudouin d'Aumeries
Co-Programmation & Développement : Marc-Olivier Méhu
Soutien technique & logistique : Manuel Goepfert

Contact : metmap@orbifly.com




SOURCES & CREDITS :

   NOAA